sensor_id;sensor_type;location;lat;lon;timestamp;P1;durP1;ratioP1;P2;durP2;ratioP2
13660;SDS011;6903;49.480;11.102;2022-08-01T00:00:07;4.72;;;4.32;;
13660;SDS011;6903;49.480;11.102;2022-08-01T00:02:33;6.22;;;4.85;;
13660;SDS011;6903;49.480;11.102;2022-08-01T00:04:58;5.57;;;4.63;;
13660;SDS011;6903;49.480;11.102;2022-08-01T00:07:25;5.30;;;4.90;;
13660;SDS011;6903;49.480;11.102;2022-08-01T00:09:51;4.75;;;4.35;;
13660;SDS011;6903;49.480;11.102;2022-08-01T00:12:16;5.88;;;4.78;;
13660;SDS011;6903;49.480;11.102;2022-08-01T00:14:41;5.70;;;4.88;;
13660;SDS011;6903;49.480;11.102;2022-08-01T00:17:07;4.85;;;4.45;;
13660;SDS011;6903;49.480;11.102;2022-08-01T00:19:32;5.38;;;4.88;;
13660;SDS011;6903;49.480;11.102;2022-08-01T00:21:57;5.30;;;4.80;;
13660;SDS011;6903;49.480;11.102;2022-08-01T00:24:23;5.97;;;4.90;;
13660;SDS011;6903;49.480;11.102;2022-08-01T00:26:48;5.20;;;4.70;;
13660;SDS011;6903;49.480;11.102;2022-08-01T00:29:13;4.78;;;4.28;;
13660;SDS011;6903;49.480;11.102;2022-08-01T00:31:39;4.97;;;4.47;;
13660;SDS011;6903;49.480;11.102;2022-08-01T00:34:04;6.15;;;4.85;;
13660;SDS011;6903;49.480;11.102;2022-08-01T00:36:29;4.80;;;4.40;;
13660;SDS011;6903;49.480;11.102;2022-08-01T00:38:55;4.80;;;4.38;;
13660;SDS011;6903;49.480;11.102;2022-08-01T00:41:20;5.82;;;4.43;;
13660;SDS011;6903;49.480;11.102;2022-08-01T00:43:45;6.28;;;5.00;;
13660;SDS011;6903;49.480;11.102;2022-08-01T00:46:11;5.32;;;4.82;;
13660;SDS011;6903;49.480;11.102;2022-08-01T00:48:36;6.05;;;4.90;;
13660;SDS011;6903;49.480;11.102;2022-08-01T00:51:02;5.32;;;4.90;;
13660;SDS011;6903;49.480;11.102;2022-08-01T00:53:28;6.13;;;5.32;;
13660;SDS011;6903;49.480;11.102;2022-08-01T00:55:54;8.52;;;5.13;;
13660;SDS011;6903;49.480;11.102;2022-08-01T00:58:21;6.30;;;5.05;;
13660;SDS011;6903;49.480;11.102;2022-08-01T01:00:46;7.72;;;5.30;;
13660;SDS011;6903;49.480;11.102;2022-08-01T01:03:11;8.15;;;4.90;;
13660;SDS011;6903;49.480;11.102;2022-08-01T01:05:40;5.60;;;5.10;;
13660;SDS011;6903;49.480;11.102;2022-08-01T01:08:22;6.55;;;5.45;;
13660;SDS011;6903;49.480;11.102;2022-08-01T01:10:54;5.75;;;5.25;;
13660;SDS011;6903;49.480;11.102;2022-08-01T01:13:29;6.55;;;5.53;;
13660;SDS011;6903;49.480;11.102;2022-08-01T01:16:08;6.55;;;4.63;;
13660;SDS011;6903;49.480;11.102;2022-08-01T01:18:45;5.75;;;5.25;;
13660;SDS011;6903;49.480;11.102;2022-08-01T01:31:46;6.07;;;5.55;;
13660;SDS011;6903;49.480;11.102;2022-08-01T01:34:15;6.25;;;5.15;;
13660;SDS011;6903;49.480;11.102;2022-08-01T01:36:43;5.97;;;5.32;;
13660;SDS011;6903;49.480;11.102;2022-08-01T01:39:09;4.80;;;4.38;;
13660;SDS011;6903;49.480;11.102;2022-08-01T01:41:36;6.35;;;5.63;;
13660;SDS011;6903;49.480;11.102;2022-08-01T01:44:03;5.95;;;5.40;;
13660;SDS011;6903;49.480;11.102;2022-08-01T01:46:30;6.90;;;5.13;;
13660;SDS011;6903;49.480;11.102;2022-08-01T01:48:56;6.60;;;5.80;;
13660;SDS011;6903;49.480;11.102;2022-08-01T01:51:24;5.75;;;5.03;;
13660;SDS011;6903;49.480;11.102;2022-08-01T01:53:52;5.70;;;5.20;;
13660;SDS011;6903;49.480;11.102;2022-08-01T01:56:19;6.05;;;5.45;;
13660;SDS011;6903;49.480;11.102;2022-08-01T01:58:45;6.80;;;6.10;;
13660;SDS011;6903;49.480;11.102;2022-08-01T02:01:15;9.15;;;5.93;;
13660;SDS011;6903;49.480;11.102;2022-08-01T02:03:42;6.00;;;5.28;;
13660;SDS011;6903;49.480;11.102;2022-08-01T02:06:08;9.20;;;5.38;;
13660;SDS011;6903;49.480;11.102;2022-08-01T02:08:36;6.65;;;5.60;;
13660;SDS011;6903;49.480;11.102;2022-08-01T02:11:03;7.13;;;5.75;;
13660;SDS011;6903;49.480;11.102;2022-08-01T02:13:52;7.07;;;5.68;;
13660;SDS011;6903;49.480;11.102;2022-08-01T02:16:24;6.47;;;5.32;;
13660;SDS011;6903;49.480;11.102;2022-08-01T02:18:51;7.40;;;5.90;;
13660;SDS011;6903;49.480;11.102;2022-08-01T02:21:19;6.47;;;4.87;;
13660;SDS011;6903;49.480;11.102;2022-08-01T02:23:48;5.40;;;4.90;;
13660;SDS011;6903;49.480;11.102;2022-08-01T02:26:15;5.63;;;5.10;;
13660;SDS011;6903;49.480;11.102;2022-08-01T02:28:45;5.57;;;5.07;;
13660;SDS011;6903;49.480;11.102;2022-08-01T02:31:18;6.10;;;5.57;;
13660;SDS011;6903;49.480;11.102;2022-08-01T02:33:50;7.55;;;6.00;;
13660;SDS011;6903;49.480;11.102;2022-08-01T02:36:22;7.82;;;5.18;;
13660;SDS011;6903;49.480;11.102;2022-08-01T02:38:50;5.85;;;5.35;;
13660;SDS011;6903;49.480;11.102;2022-08-01T02:41:19;6.18;;;5.25;;
13660;SDS011;6903;49.480;11.102;2022-08-01T02:43:47;7.55;;;5.57;;
13660;SDS011;6903;49.480;11.102;2022-08-01T02:46:17;5.95;;;5.25;;
13660;SDS011;6903;49.480;11.102;2022-08-01T02:48:47;6.10;;;5.60;;
13660;SDS011;6903;49.480;11.102;2022-08-01T02:51:15;6.43;;;5.40;;
13660;SDS011;6903;49.480;11.102;2022-08-01T02:53:42;4.90;;;4.50;;
13660;SDS011;6903;49.480;11.102;2022-08-01T02:56:09;6.35;;;5.75;;
13660;SDS011;6903;49.480;11.102;2022-08-01T02:58:35;6.20;;;5.60;;
13660;SDS011;6903;49.480;11.102;2022-08-01T03:01:03;6.75;;;5.32;;
13660;SDS011;6903;49.480;11.102;2022-08-01T03:03:30;6.28;;;5.68;;
13660;SDS011;6903;49.480;11.102;2022-08-01T03:05:57;6.70;;;6.07;;
13660;SDS011;6903;49.480;11.102;2022-08-01T03:08:23;6.70;;;5.97;;
13660;SDS011;6903;49.480;11.102;2022-08-01T03:10:50;6.50;;;5.85;;
13660;SDS011;6903;49.480;11.102;2022-08-01T03:13:17;8.57;;;6.03;;
13660;SDS011;6903;49.480;11.102;2022-08-01T03:15:43;6.45;;;5.78;;
13660;SDS011;6903;49.480;11.102;2022-08-01T03:18:09;6.22;;;5.43;;
13660;SDS011;6903;49.480;11.102;2022-08-01T03:20:37;6.40;;;5.90;;
13660;SDS011;6903;49.480;11.102;2022-08-01T03:23:03;6.50;;;5.90;;
13660;SDS011;6903;49.480;11.102;2022-08-01T03:25:31;6.22;;;5.72;;
13660;SDS011;6903;49.480;11.102;2022-08-01T03:28:01;6.83;;;6.20;;
13660;SDS011;6903;49.480;11.102;2022-08-01T03:30:28;6.20;;;5.60;;
13660;SDS011;6903;49.480;11.102;2022-08-01T03:32:55;6.57;;;6.03;;
13660;SDS011;6903;49.480;11.102;2022-08-01T03:35:21;6.50;;;5.90;;
13660;SDS011;6903;49.480;11.102;2022-08-01T03:37:49;7.47;;;6.80;;
13660;SDS011;6903;49.480;11.102;2022-08-01T03:40:19;8.30;;;6.80;;
13660;SDS011;6903;49.480;11.102;2022-08-01T03:42:49;8.93;;;5.73;;
13660;SDS011;6903;49.480;11.102;2022-08-01T03:45:19;8.40;;;6.77;;
13660;SDS011;6903;49.480;11.102;2022-08-01T03:47:48;9.83;;;6.60;;
13660;SDS011;6903;49.480;11.102;2022-08-01T03:50:17;7.00;;;6.30;;
13660;SDS011;6903;49.480;11.102;2022-08-01T03:52:46;6.13;;;5.60;;
13660;SDS011;6903;49.480;11.102;2022-08-01T03:55:11;7.23;;;6.63;;
13660;SDS011;6903;49.480;11.102;2022-08-01T03:57:40;7.53;;;6.70;;
13660;SDS011;6903;49.480;11.102;2022-08-01T04:00:06;7.53;;;6.90;;
13660;SDS011;6903;49.480;11.102;2022-08-01T04:02:33;9.10;;;6.97;;
13660;SDS011;6903;49.480;11.102;2022-08-01T04:04:59;9.13;;;6.93;;
13660;SDS011;6903;49.480;11.102;2022-08-01T04:07:26;7.77;;;7.07;;
13660;SDS011;6903;49.480;11.102;2022-08-01T04:09:53;7.57;;;6.90;;
13660;SDS011;6903;49.480;11.102;2022-08-01T04:12:19;7.57;;;6.90;;
13660;SDS011;6903;49.480;11.102;2022-08-01T04:14:44;7.40;;;6.70;;
13660;SDS011;6903;49.480;11.102;2022-08-01T04:17:10;7.82;;;7.13;;
13660;SDS011;6903;49.480;11.102;2022-08-01T04:19:35;7.70;;;7.00;;
13660;SDS011;6903;49.480;11.102;2022-08-01T04:22:00;7.30;;;6.50;;
13660;SDS011;6903;49.480;11.102;2022-08-01T04:24:27;8.35;;;6.10;;
13660;SDS011;6903;49.480;11.102;2022-08-01T04:26:55;5.85;;;5.28;;
13660;SDS011;6903;49.480;11.102;2022-08-01T04:29:24;6.82;;;6.22;;
13660;SDS011;6903;49.480;11.102;2022-08-01T04:31:51;7.47;;;6.25;;
13660;SDS011;6903;49.480;11.102;2022-08-01T04:34:20;6.68;;;6.18;;
13660;SDS011;6903;49.480;11.102;2022-08-01T04:36:48;6.63;;;6.05;;
13660;SDS011;6903;49.480;11.102;2022-08-01T04:39:16;8.18;;;5.85;;
13660;SDS011;6903;49.480;11.102;2022-08-01T04:41:44;6.38;;;5.30;;
13660;SDS011;6903;49.480;11.102;2022-08-01T04:44:11;5.75;;;4.78;;
13660;SDS011;6903;49.480;11.102;2022-08-01T04:46:37;4.57;;;4.22;;
13660;SDS011;6903;49.480;11.102;2022-08-01T04:49:05;6.47;;;4.80;;
13660;SDS011;6903;49.480;11.102;2022-08-01T04:51:31;6.63;;;4.65;;
13660;SDS011;6903;49.480;11.102;2022-08-01T04:53:57;5.55;;;4.53;;
13660;SDS011;6903;49.480;11.102;2022-08-01T04:56:23;5.18;;;4.68;;
13660;SDS011;6903;49.480;11.102;2022-08-01T04:58:48;4.57;;;4.18;;
13660;SDS011;6903;49.480;11.102;2022-08-01T05:01:34;4.97;;;4.45;;
13660;SDS011;6903;49.480;11.102;2022-08-01T05:03:59;6.13;;;4.68;;
13660;SDS011;6903;49.480;11.102;2022-08-01T05:06:25;3.92;;;3.63;;
13660;SDS011;6903;49.480;11.102;2022-08-01T05:08:50;5.63;;;4.20;;
13660;SDS011;6903;49.480;11.102;2022-08-01T05:11:15;4.75;;;4.35;;
13660;SDS011;6903;49.480;11.102;2022-08-01T05:13:40;4.30;;;3.90;;
13660;SDS011;6903;49.480;11.102;2022-08-01T05:16:06;5.03;;;3.78;;
13660;SDS011;6903;49.480;11.102;2022-08-01T05:18:32;3.97;;;3.60;;
13660;SDS011;6903;49.480;11.102;2022-08-01T05:20:57;7.00;;;5.85;;
13660;SDS011;6903;49.480;11.102;2022-08-01T05:23:22;4.72;;;3.92;;
13660;SDS011;6903;49.480;11.102;2022-08-01T05:25:48;5.72;;;3.40;;
13660;SDS011;6903;49.480;11.102;2022-08-01T05:28:14;6.43;;;3.63;;
13660;SDS011;6903;49.480;11.102;2022-08-01T05:30:39;5.82;;;3.67;;
13660;SDS011;6903;49.480;11.102;2022-08-01T05:33:05;3.72;;;3.17;;
13660;SDS011;6903;49.480;11.102;2022-08-01T05:35:30;3.78;;;3.38;;
13660;SDS011;6903;49.480;11.102;2022-08-01T05:37:56;3.45;;;3.15;;
13660;SDS011;6903;49.480;11.102;2022-08-01T05:40:21;3.13;;;2.72;;
13660;SDS011;6903;49.480;11.102;2022-08-01T05:42:46;3.38;;;3.08;;
13660;SDS011;6903;49.480;11.102;2022-08-01T05:45:12;3.42;;;2.83;;
13660;SDS011;6903;49.480;11.102;2022-08-01T05:47:37;3.17;;;2.88;;
13660;SDS011;6903;49.480;11.102;2022-08-01T05:50:03;4.10;;;2.80;;
13660;SDS011;6903;49.480;11.102;2022-08-01T05:52:28;3.00;;;2.65;;
13660;SDS011;6903;49.480;11.102;2022-08-01T05:54:55;5.25;;;2.78;;
13660;SDS011;6903;49.480;11.102;2022-08-01T05:57:21;2.70;;;2.50;;
13660;SDS011;6903;49.480;11.102;2022-08-01T05:59:46;2.85;;;2.10;;
13660;SDS011;6903;49.480;11.102;2022-08-01T06:02:11;3.35;;;2.42;;
13660;SDS011;6903;49.480;11.102;2022-08-01T06:04:37;2.55;;;2.25;;
13660;SDS011;6903;49.480;11.102;2022-08-01T06:07:02;3.85;;;2.22;;
13660;SDS011;6903;49.480;11.102;2022-08-01T06:09:27;2.35;;;2.00;;
13660;SDS011;6903;49.480;11.102;2022-08-01T06:11:53;5.43;;;3.17;;
13660;SDS011;6903;49.480;11.102;2022-08-01T06:14:18;3.50;;;2.17;;
13660;SDS011;6903;49.480;11.102;2022-08-01T06:16:43;3.47;;;2.10;;
13660;SDS011;6903;49.480;11.102;2022-08-01T06:19:09;4.30;;;2.55;;
13660;SDS011;6903;49.480;11.102;2022-08-01T06:21:34;3.88;;;2.10;;
13660;SDS011;6903;49.480;11.102;2022-08-01T06:23:59;3.85;;;2.10;;
13660;SDS011;6903;49.480;11.102;2022-08-01T06:26:24;2.60;;;2.00;;
13660;SDS011;6903;49.480;11.102;2022-08-01T06:28:50;2.53;;;1.80;;
13660;SDS011;6903;49.480;11.102;2022-08-01T06:31:15;2.33;;;2.00;;
13660;SDS011;6903;49.480;11.102;2022-08-01T06:33:40;2.30;;;1.85;;
13660;SDS011;6903;49.480;11.102;2022-08-01T06:36:06;3.92;;;1.90;;
13660;SDS011;6903;49.480;11.102;2022-08-01T06:38:31;2.42;;;2.00;;
13660;SDS011;6903;49.480;11.102;2022-08-01T06:40:56;2.20;;;2.00;;
13660;SDS011;6903;49.480;11.102;2022-08-01T06:43:22;3.33;;;1.92;;
13660;SDS011;6903;49.480;11.102;2022-08-01T06:45:47;2.50;;;1.80;;
13660;SDS011;6903;49.480;11.102;2022-08-01T06:48:13;5.00;;;2.00;;
13660;SDS011;6903;49.480;11.102;2022-08-01T06:50:39;4.57;;;1.90;;
13660;SDS011;6903;49.480;11.102;2022-08-01T06:53:04;3.05;;;1.98;;
13660;SDS011;6903;49.480;11.102;2022-08-01T06:55:30;6.28;;;2.15;;
13660;SDS011;6903;49.480;11.102;2022-08-01T06:57:55;3.97;;;1.92;;
13660;SDS011;6903;49.480;11.102;2022-08-01T07:00:21;3.03;;;1.88;;
13660;SDS011;6903;49.480;11.102;2022-08-01T07:02:49;3.58;;;1.75;;
13660;SDS011;6903;49.480;11.102;2022-08-01T07:05:18;1.80;;;1.50;;
13660;SDS011;6903;49.480;11.102;2022-08-01T07:07:44;3.05;;;1.60;;
13660;SDS011;6903;49.480;11.102;2022-08-01T07:10:10;4.85;;;1.92;;
13660;SDS011;6903;49.480;11.102;2022-08-01T07:12:35;1.95;;;1.58;;
13660;SDS011;6903;49.480;11.102;2022-08-01T07:15:06;1.77;;;1.60;;
13660;SDS011;6903;49.480;11.102;2022-08-01T07:17:32;3.30;;;1.80;;
13660;SDS011;6903;49.480;11.102;2022-08-01T07:20:02;4.53;;;1.70;;
13660;SDS011;6903;49.480;11.102;2022-08-01T07:22:27;2.13;;;1.92;;
13660;SDS011;6903;49.480;11.102;2022-08-01T07:24:52;3.13;;;1.85;;
13660;SDS011;6903;49.480;11.102;2022-08-01T07:27:18;3.50;;;2.00;;
13660;SDS011;6903;49.480;11.102;2022-08-01T07:29:43;3.42;;;1.60;;
13660;SDS011;6903;49.480;11.102;2022-08-01T07:32:08;4.03;;;1.85;;
13660;SDS011;6903;49.480;11.102;2022-08-01T07:34:34;2.20;;;2.00;;
13660;SDS011;6903;49.480;11.102;2022-08-01T07:36:59;1.70;;;1.60;;
13660;SDS011;6903;49.480;11.102;2022-08-01T07:39:24;2.03;;;1.80;;
13660;SDS011;6903;49.480;11.102;2022-08-01T07:41:50;4.07;;;2.00;;
13660;SDS011;6903;49.480;11.102;2022-08-01T07:44:15;3.22;;;1.60;;
13660;SDS011;6903;49.480;11.102;2022-08-01T07:46:40;2.63;;;1.80;;
13660;SDS011;6903;49.480;11.102;2022-08-01T07:49:06;1.70;;;1.60;;
13660;SDS011;6903;49.480;11.102;2022-08-01T07:51:31;3.97;;;1.88;;
13660;SDS011;6903;49.480;11.102;2022-08-01T07:53:56;2.80;;;1.70;;
13660;SDS011;6903;49.480;11.102;2022-08-01T07:56:21;4.57;;;1.88;;
13660;SDS011;6903;49.480;11.102;2022-08-01T07:58:49;2.65;;;1.42;;
13660;SDS011;6903;49.480;11.102;2022-08-01T08:01:14;4.40;;;1.90;;
13660;SDS011;6903;49.480;11.102;2022-08-01T08:03:40;3.45;;;2.20;;
13660;SDS011;6903;49.480;11.102;2022-08-01T08:06:05;2.80;;;1.67;;
13660;SDS011;6903;49.480;11.102;2022-08-01T08:08:30;3.85;;;1.70;;
13660;SDS011;6903;49.480;11.102;2022-08-01T08:10:56;2.10;;;1.50;;
13660;SDS011;6903;49.480;11.102;2022-08-01T08:13:21;2.55;;;1.80;;
13660;SDS011;6903;49.480;11.102;2022-08-01T08:15:47;3.35;;;1.63;;
13660;SDS011;6903;49.480;11.102;2022-08-01T08:18:12;3.78;;;1.85;;
13660;SDS011;6903;49.480;11.102;2022-08-01T08:20:38;2.90;;;1.67;;
13660;SDS011;6903;49.480;11.102;2022-08-01T08:23:03;3.13;;;2.10;;
13660;SDS011;6903;49.480;11.102;2022-08-01T08:25:48;2.03;;;1.70;;
13660;SDS011;6903;49.480;11.102;2022-08-01T08:28:14;2.00;;;1.80;;
13660;SDS011;6903;49.480;11.102;2022-08-01T08:30:39;4.43;;;1.90;;
13660;SDS011;6903;49.480;11.102;2022-08-01T08:33:04;3.00;;;2.08;;
13660;SDS011;6903;49.480;11.102;2022-08-01T08:35:30;2.25;;;2.00;;
13660;SDS011;6903;49.480;11.102;2022-08-01T08:37:55;2.75;;;1.65;;
13660;SDS011;6903;49.480;11.102;2022-08-01T08:40:20;1.63;;;1.52;;
13660;SDS011;6903;49.480;11.102;2022-08-01T08:42:49;3.72;;;1.88;;
13660;SDS011;6903;49.480;11.102;2022-08-01T08:45:15;3.08;;;1.75;;
13660;SDS011;6903;49.480;11.102;2022-08-01T08:47:41;3.42;;;1.67;;
13660;SDS011;6903;49.480;11.102;2022-08-01T08:50:08;3.05;;;1.52;;
13660;SDS011;6903;49.480;11.102;2022-08-01T08:52:35;1.73;;;1.63;;
13660;SDS011;6903;49.480;11.102;2022-08-01T08:55:04;6.05;;;2.30;;
13660;SDS011;6903;49.480;11.102;2022-08-01T08:57:30;2.92;;;1.70;;
13660;SDS011;6903;49.480;11.102;2022-08-01T08:59:55;3.13;;;1.80;;
13660;SDS011;6903;49.480;11.102;2022-08-01T09:02:21;2.28;;;1.30;;
13660;SDS011;6903;49.480;11.102;2022-08-01T09:04:48;2.10;;;1.73;;
13660;SDS011;6903;49.480;11.102;2022-08-01T09:07:14;1.63;;;1.52;;
13660;SDS011;6903;49.480;11.102;2022-08-01T09:09:40;3.28;;;1.80;;
13660;SDS011;6903;49.480;11.102;2022-08-01T09:12:05;3.25;;;1.75;;
13660;SDS011;6903;49.480;11.102;2022-08-01T09:14:30;3.63;;;1.77;;
13660;SDS011;6903;49.480;11.102;2022-08-01T09:17:07;1.83;;;1.10;;
13660;SDS011;6903;49.480;11.102;2022-08-01T09:19:41;1.48;;;1.23;;
13660;SDS011;6903;49.480;11.102;2022-08-01T09:22:09;1.20;;;1.05;;
13660;SDS011;6903;49.480;11.102;2022-08-01T09:24:43;2.08;;;1.10;;
13660;SDS011;6903;49.480;11.102;2022-08-01T09:27:31;2.17;;;1.50;;
13660;SDS011;6903;49.480;11.102;2022-08-01T09:30:13;1.67;;;1.15;;
13660;SDS011;6903;49.480;11.102;2022-08-01T09:32:53;2.50;;;1.20;;
13660;SDS011;6903;49.480;11.102;2022-08-01T09:35:27;1.67;;;1.20;;
13660;SDS011;6903;49.480;11.102;2022-08-01T09:40:58;1.73;;;1.10;;
13660;SDS011;6903;49.480;11.102;2022-08-01T09:43:29;3.78;;;1.08;;
13660;SDS011;6903;49.480;11.102;2022-08-01T09:45:55;1.30;;;1.20;;
13660;SDS011;6903;49.480;11.102;2022-08-01T09:48:22;2.22;;;1.25;;
13660;SDS011;6903;49.480;11.102;2022-08-01T09:50:48;2.35;;;1.10;;
13660;SDS011;6903;49.480;11.102;2022-08-01T09:53:15;1.75;;;1.38;;
13660;SDS011;6903;49.480;11.102;2022-08-01T09:55:41;3.17;;;1.30;;
13660;SDS011;6903;49.480;11.102;2022-08-01T09:58:07;1.05;;;1.00;;
13660;SDS011;6903;49.480;11.102;2022-08-01T10:00:34;1.17;;;1.02;;
13660;SDS011;6903;49.480;11.102;2022-08-01T10:03:00;3.03;;;1.30;;
13660;SDS011;6903;49.480;11.102;2022-08-01T10:05:44;1.77;;;1.10;;
13660;SDS011;6903;49.480;11.102;2022-08-01T10:08:10;1.25;;;1.02;;
13660;SDS011;6903;49.480;11.102;2022-08-01T10:10:37;2.83;;;1.10;;
13660;SDS011;6903;49.480;11.102;2022-08-01T10:13:02;3.97;;;1.30;;
13660;SDS011;6903;49.480;11.102;2022-08-01T10:15:29;3.55;;;1.42;;
13660;SDS011;6903;49.480;11.102;2022-08-01T10:17:56;3.05;;;1.17;;
13660;SDS011;6903;49.480;11.102;2022-08-01T10:20:24;1.83;;;1.10;;
13660;SDS011;6903;49.480;11.102;2022-08-01T10:22:52;3.22;;;1.15;;
13660;SDS011;6903;49.480;11.102;2022-08-01T10:25:19;2.53;;;2.20;;
13660;SDS011;6903;49.480;11.102;2022-08-01T10:27:48;2.13;;;0.98;;
13660;SDS011;6903;49.480;11.102;2022-08-01T10:30:15;1.17;;;0.98;;
13660;SDS011;6903;49.480;11.102;2022-08-01T10:32:40;1.27;;;0.90;;
13660;SDS011;6903;49.480;11.102;2022-08-01T10:35:09;1.05;;;0.90;;
13660;SDS011;6903;49.480;11.102;2022-08-01T10:37:40;1.08;;;0.90;;
13660;SDS011;6903;49.480;11.102;2022-08-01T10:40:07;1.35;;;0.95;;
13660;SDS011;6903;49.480;11.102;2022-08-01T10:42:33;1.02;;;0.93;;
13660;SDS011;6903;49.480;11.102;2022-08-01T10:44:59;1.13;;;0.98;;
13660;SDS011;6903;49.480;11.102;2022-08-01T10:47:27;1.83;;;1.10;;
13660;SDS011;6903;49.480;11.102;2022-08-01T10:50:35;2.17;;;1.10;;
13660;SDS011;6903;49.480;11.102;2022-08-01T11:00:47;1.00;;;0.90;;
13660;SDS011;6903;49.480;11.102;2022-08-01T11:03:12;1.08;;;0.95;;
13660;SDS011;6903;49.480;11.102;2022-08-01T11:05:38;1.83;;;1.00;;
13660;SDS011;6903;49.480;11.102;2022-08-01T11:08:10;1.80;;;1.10;;
13660;SDS011;6903;49.480;11.102;2022-08-01T11:10:45;1.13;;;0.90;;
13660;SDS011;6903;49.480;11.102;2022-08-01T11:13:12;1.48;;;1.00;;
13660;SDS011;6903;49.480;11.102;2022-08-01T11:15:38;2.50;;;1.30;;
13660;SDS011;6903;49.480;11.102;2022-08-01T11:20:58;1.42;;;1.00;;
13660;SDS011;6903;49.480;11.102;2022-08-01T11:23:25;2.75;;;1.25;;
13660;SDS011;6903;49.480;11.102;2022-08-01T11:28:36;1.27;;;1.17;;
13660;SDS011;6903;49.480;11.102;2022-08-01T11:38:42;1.40;;;1.10;;
13660;SDS011;6903;49.480;11.102;2022-08-01T11:43:55;1.88;;;0.90;;
13660;SDS011;6903;49.480;11.102;2022-08-01T11:49:25;1.17;;;1.02;;
13660;SDS011;6903;49.480;11.102;2022-08-01T11:51:56;1.88;;;1.10;;
13660;SDS011;6903;49.480;11.102;2022-08-01T11:54:27;1.20;;;1.10;;
13660;SDS011;6903;49.480;11.102;2022-08-01T11:56:57;2.35;;;1.30;;
13660;SDS011;6903;49.480;11.102;2022-08-01T11:59:24;2.08;;;1.10;;
13660;SDS011;6903;49.480;11.102;2022-08-01T12:01:50;4.00;;;1.10;;
13660;SDS011;6903;49.480;11.102;2022-08-01T12:04:16;1.63;;;1.20;;
13660;SDS011;6903;49.480;11.102;2022-08-01T12:06:41;2.70;;;1.23;;
13660;SDS011;6903;49.480;11.102;2022-08-01T12:09:22;2.20;;;1.30;;
13660;SDS011;6903;49.480;11.102;2022-08-01T12:11:48;1.90;;;1.38;;
13660;SDS011;6903;49.480;11.102;2022-08-01T12:14:20;4.53;;;1.70;;
13660;SDS011;6903;49.480;11.102;2022-08-01T12:16:52;3.03;;;1.63;;
13660;SDS011;6903;49.480;11.102;2022-08-01T12:19:19;1.73;;;1.40;;
13660;SDS011;6903;49.480;11.102;2022-08-01T12:22:04;1.92;;;1.42;;
13660;SDS011;6903;49.480;11.102;2022-08-01T12:24:31;1.80;;;1.70;;
13660;SDS011;6903;49.480;11.102;2022-08-01T12:26:57;1.60;;;1.50;;
13660;SDS011;6903;49.480;11.102;2022-08-01T12:29:38;1.73;;;1.48;;
13660;SDS011;6903;49.480;11.102;2022-08-01T12:32:24;2.00;;;1.38;;
13660;SDS011;6903;49.480;11.102;2022-08-01T12:34:50;2.88;;;1.42;;
13660;SDS011;6903;49.480;11.102;2022-08-01T12:37:17;3.97;;;1.75;;
13660;SDS011;6903;49.480;11.102;2022-08-01T12:39:43;1.45;;;1.35;;
13660;SDS011;6903;49.480;11.102;2022-08-01T12:42:09;3.72;;;1.52;;
13660;SDS011;6903;49.480;11.102;2022-08-01T12:44:35;1.35;;;1.25;;
13660;SDS011;6903;49.480;11.102;2022-08-01T12:47:02;3.55;;;1.50;;
13660;SDS011;6903;49.480;11.102;2022-08-01T12:49:30;4.70;;;1.50;;
13660;SDS011;6903;49.480;11.102;2022-08-01T12:51:57;3.47;;;1.60;;
13660;SDS011;6903;49.480;11.102;2022-08-01T12:54:23;2.67;;;1.52;;
13660;SDS011;6903;49.480;11.102;2022-08-01T12:56:50;1.38;;;1.27;;
13660;SDS011;6903;49.480;11.102;2022-08-01T12:59:21;3.00;;;1.27;;
13660;SDS011;6903;49.480;11.102;2022-08-01T13:01:50;2.72;;;1.60;;
13660;SDS011;6903;49.480;11.102;2022-08-01T13:04:19;2.97;;;1.50;;
13660;SDS011;6903;49.480;11.102;2022-08-01T13:06:45;3.38;;;1.27;;
13660;SDS011;6903;49.480;11.102;2022-08-01T13:09:11;3.08;;;1.50;;
13660;SDS011;6903;49.480;11.102;2022-08-01T13:11:38;1.58;;;1.30;;
13660;SDS011;6903;49.480;11.102;2022-08-01T13:14:04;2.38;;;1.50;;
13660;SDS011;6903;49.480;11.102;2022-08-01T13:16:30;2.38;;;1.30;;
13660;SDS011;6903;49.480;11.102;2022-08-01T13:18:55;4.07;;;1.67;;
13660;SDS011;6903;49.480;11.102;2022-08-01T13:21:23;3.88;;;1.65;;
13660;SDS011;6903;49.480;11.102;2022-08-01T13:26:39;6.38;;;1.50;;
13660;SDS011;6903;49.480;11.102;2022-08-01T13:29:06;4.75;;;1.70;;
13660;SDS011;6903;49.480;11.102;2022-08-01T13:31:33;8.32;;;1.83;;
13660;SDS011;6903;49.480;11.102;2022-08-01T13:33:59;4.32;;;1.50;;
13660;SDS011;6903;49.480;11.102;2022-08-01T13:36:24;1.70;;;1.60;;
13660;SDS011;6903;49.480;11.102;2022-08-01T13:38:52;2.47;;;1.50;;
13660;SDS011;6903;49.480;11.102;2022-08-01T13:41:35;6.95;;;1.70;;
13660;SDS011;6903;49.480;11.102;2022-08-01T13:44:01;6.00;;;1.70;;
13660;SDS011;6903;49.480;11.102;2022-08-01T13:46:26;2.55;;;2.28;;
13660;SDS011;6903;49.480;11.102;2022-08-01T13:48:51;2.28;;;1.40;;
13660;SDS011;6903;49.480;11.102;2022-08-01T13:51:17;1.67;;;1.50;;
13660;SDS011;6903;49.480;11.102;2022-08-01T13:53:42;2.22;;;1.60;;
13660;SDS011;6903;49.480;11.102;2022-08-01T13:56:07;2.17;;;1.67;;
13660;SDS011;6903;49.480;11.102;2022-08-01T13:58:33;2.38;;;1.55;;
13660;SDS011;6903;49.480;11.102;2022-08-01T14:00:58;2.00;;;1.48;;
13660;SDS011;6903;49.480;11.102;2022-08-01T14:03:23;2.03;;;1.17;;
13660;SDS011;6903;49.480;11.102;2022-08-01T14:05:49;1.20;;;1.10;;
13660;SDS011;6903;49.480;11.102;2022-08-01T14:08:14;3.35;;;1.40;;
13660;SDS011;6903;49.480;11.102;2022-08-01T14:10:40;1.75;;;1.60;;
13660;SDS011;6903;49.480;11.102;2022-08-01T14:13:05;2.80;;;1.30;;
13660;SDS011;6903;49.480;11.102;2022-08-01T14:15:31;2.03;;;1.30;;
13660;SDS011;6903;49.480;11.102;2022-08-01T14:17:57;1.92;;;1.15;;
13660;SDS011;6903;49.480;11.102;2022-08-01T14:20:23;2.50;;;1.38;;
13660;SDS011;6903;49.480;11.102;2022-08-01T14:22:48;1.33;;;1.00;;
13660;SDS011;6903;49.480;11.102;2022-08-01T14:25:14;1.25;;;1.10;;
13660;SDS011;6903;49.480;11.102;2022-08-01T14:27:39;1.02;;;0.90;;
13660;SDS011;6903;49.480;11.102;2022-08-01T14:30:06;2.08;;;1.10;;
13660;SDS011;6903;49.480;11.102;2022-08-01T14:32:32;1.90;;;1.05;;
13660;SDS011;6903;49.480;11.102;2022-08-01T14:34:58;3.55;;;1.20;;
13660;SDS011;6903;49.480;11.102;2022-08-01T14:37:24;1.30;;;1.20;;
13660;SDS011;6903;49.480;11.102;2022-08-01T14:39:50;1.30;;;1.00;;
13660;SDS011;6903;49.480;11.102;2022-08-01T14:42:15;1.58;;;1.20;;
13660;SDS011;6903;49.480;11.102;2022-08-01T14:44:40;3.15;;;1.05;;
13660;SDS011;6903;49.480;11.102;2022-08-01T14:47:06;2.15;;;1.27;;
13660;SDS011;6903;49.480;11.102;2022-08-01T14:49:31;2.58;;;1.00;;
13660;SDS011;6903;49.480;11.102;2022-08-01T14:51:56;2.38;;;1.05;;
13660;SDS011;6903;49.480;11.102;2022-08-01T14:54:22;1.55;;;1.00;;
13660;SDS011;6903;49.480;11.102;2022-08-01T14:56:48;3.72;;;1.00;;
13660;SDS011;6903;49.480;11.102;2022-08-01T14:59:13;1.90;;;1.23;;
13660;SDS011;6903;49.480;11.102;2022-08-01T15:01:39;1.13;;;1.02;;
13660;SDS011;6903;49.480;11.102;2022-08-01T15:04:04;3.40;;;0.90;;
13660;SDS011;6903;49.480;11.102;2022-08-01T15:06:29;1.92;;;0.93;;
13660;SDS011;6903;49.480;11.102;2022-08-01T15:08:55;2.03;;;1.10;;
13660;SDS011;6903;49.480;11.102;2022-08-01T15:11:20;3.08;;;1.10;;
13660;SDS011;6903;49.480;11.102;2022-08-01T15:13:45;0.90;;;0.90;;
13660;SDS011;6903;49.480;11.102;2022-08-01T15:16:31;2.65;;;1.10;;
13660;SDS011;6903;49.480;11.102;2022-08-01T15:18:56;2.25;;;1.20;;
13660;SDS011;6903;49.480;11.102;2022-08-01T15:21:21;1.10;;;1.00;;
13660;SDS011;6903;49.480;11.102;2022-08-01T15:23:47;2.03;;;1.20;;
13660;SDS011;6903;49.480;11.102;2022-08-01T15:26:12;1.20;;;1.00;;
13660;SDS011;6903;49.480;11.102;2022-08-01T15:28:38;1.60;;;0.90;;
13660;SDS011;6903;49.480;11.102;2022-08-01T15:31:03;1.40;;;0.98;;